Energy Center, Louisiana
Current Conditions -  °F | °C
As of 10:53 AM on Saturday 20 Dec 2014 (Local Time) from KLFT Reporting Station
Haze Haze  
Wind Chill: 50°   Ceiling: 400
Heat Index: 50°   Visibility: 4mi
Dew Point: 48°   Wind: 13mph
Humidity: 93%   Direction: 10°N
Pressure: 30.19"   Gusts: NA
Location:  30.2247°N, 92.0198°W
Report Text: KLFT 201653Z 01011KT 4SM BR OVC004 10/09 A3019 RMK AO2 SLP223 T01000089
Loading
Personal Weather Stations






























Interactive Weather Map New forecast layout! Learn more

10-Day Weather Forecast

Advertisements
Track Severe Weather on mobile